sensor_id;sensor_type;location;lat;lon;timestamp;P1;durP1;ratioP1;P2;durP2;ratioP2
39524;SDS011;25203;50.754;6.978;2023-07-30T00:01:07;5.10;;;3.40;;
39524;SDS011;25203;50.754;6.978;2023-07-30T00:03:08;5.43;;;2.95;;
39524;SDS011;25203;50.754;6.978;2023-07-30T00:05:08;5.63;;;3.40;;
39524;SDS011;25203;50.754;6.978;2023-07-30T00:07:09;5.72;;;2.85;;
39524;SDS011;25203;50.754;6.978;2023-07-30T00:09:10;3.25;;;2.60;;
39524;SDS011;25203;50.754;6.978;2023-07-30T00:11:10;3.67;;;2.72;;
39524;SDS011;25203;50.754;6.978;2023-07-30T00:13:11;3.60;;;2.92;;
39524;SDS011;25203;50.754;6.978;2023-07-30T00:15:12;5.97;;;2.90;;
39524;SDS011;25203;50.754;6.978;2023-07-30T00:17:13;5.93;;;3.20;;
39524;SDS011;25203;50.754;6.978;2023-07-30T00:19:13;9.45;;;3.08;;
39524;SDS011;25203;50.754;6.978;2023-07-30T00:21:14;9.55;;;3.13;;
39524;SDS011;25203;50.754;6.978;2023-07-30T00:23:14;4.78;;;3.15;;
39524;SDS011;25203;50.754;6.978;2023-07-30T00:25:15;4.28;;;3.05;;
39524;SDS011;25203;50.754;6.978;2023-07-30T00:27:15;6.03;;;3.38;;
39524;SDS011;25203;50.754;6.978;2023-07-30T00:29:16;4.03;;;3.17;;
39524;SDS011;25203;50.754;6.978;2023-07-30T00:31:18;4.85;;;3.60;;
39524;SDS011;25203;50.754;6.978;2023-07-30T00:33:18;5.00;;;3.13;;
39524;SDS011;25203;50.754;6.978;2023-07-30T00:35:19;3.72;;;2.90;;
39524;SDS011;25203;50.754;6.978;2023-07-30T00:37:19;2.65;;;2.45;;
39524;SDS011;25203;50.754;6.978;2023-07-30T00:39:20;6.53;;;3.45;;
39524;SDS011;25203;50.754;6.978;2023-07-30T00:41:21;8.95;;;3.47;;
39524;SDS011;25203;50.754;6.978;2023-07-30T00:43:21;9.52;;;3.05;;
39524;SDS011;25203;50.754;6.978;2023-07-30T00:45:22;4.60;;;3.40;;
39524;SDS011;25203;50.754;6.978;2023-07-30T00:47:22;4.22;;;3.22;;
39524;SDS011;25203;50.754;6.978;2023-07-30T00:49:23;5.75;;;3.58;;
39524;SDS011;25203;50.754;6.978;2023-07-30T00:51:24;5.20;;;3.67;;
39524;SDS011;25203;50.754;6.978;2023-07-30T00:53:26;6.10;;;3.30;;
39524;SDS011;25203;50.754;6.978;2023-07-30T00:55:28;6.05;;;3.80;;
39524;SDS011;25203;50.754;6.978;2023-07-30T00:57:28;3.08;;;2.80;;
39524;SDS011;25203;50.754;6.978;2023-07-30T00:59:30;5.38;;;3.45;;
39524;SDS011;25203;50.754;6.978;2023-07-30T01:01:32;6.53;;;3.60;;
39524;SDS011;25203;50.754;6.978;2023-07-30T01:03:35;5.43;;;3.17;;
39524;SDS011;25203;50.754;6.978;2023-07-30T01:05:37;4.82;;;3.35;;
39524;SDS011;25203;50.754;6.978;2023-07-30T01:07:38;5.70;;;3.05;;
39524;SDS011;25203;50.754;6.978;2023-07-30T01:09:38;7.70;;;3.25;;
39524;SDS011;25203;50.754;6.978;2023-07-30T01:11:39;4.50;;;3.20;;
39524;SDS011;25203;50.754;6.978;2023-07-30T01:13:41;4.90;;;3.15;;
39524;SDS011;25203;50.754;6.978;2023-07-30T01:15:42;5.68;;;2.90;;
39524;SDS011;25203;50.754;6.978;2023-07-30T01:17:44;4.25;;;2.85;;
39524;SDS011;25203;50.754;6.978;2023-07-30T01:19:45;3.33;;;2.75;;
39524;SDS011;25203;50.754;6.978;2023-07-30T01:21:46;8.57;;;2.80;;
39524;SDS011;25203;50.754;6.978;2023-07-30T01:23:46;4.15;;;2.75;;
39524;SDS011;25203;50.754;6.978;2023-07-30T01:25:47;4.38;;;3.00;;
39524;SDS011;25203;50.754;6.978;2023-07-30T01:27:54;6.60;;;2.97;;
39524;SDS011;25203;50.754;6.978;2023-07-30T01:30:21;4.05;;;3.08;;
39524;SDS011;25203;50.754;6.978;2023-07-30T01:32:26;3.90;;;3.05;;
39524;SDS011;25203;50.754;6.978;2023-07-30T01:34:28;4.80;;;3.17;;
39524;SDS011;25203;50.754;6.978;2023-07-30T01:36:33;8.48;;;3.65;;
39524;SDS011;25203;50.754;6.978;2023-07-30T01:38:35;7.30;;;3.40;;
39524;SDS011;25203;50.754;6.978;2023-07-30T01:40:35;3.90;;;3.22;;
39524;SDS011;25203;50.754;6.978;2023-07-30T01:42:36;4.05;;;2.97;;
39524;SDS011;25203;50.754;6.978;2023-07-30T01:44:37;4.07;;;3.17;;
39524;SDS011;25203;50.754;6.978;2023-07-30T01:46:37;6.53;;;2.90;;
39524;SDS011;25203;50.754;6.978;2023-07-30T01:48:38;5.85;;;2.83;;
39524;SDS011;25203;50.754;6.978;2023-07-30T01:50:38;7.32;;;3.05;;
39524;SDS011;25203;50.754;6.978;2023-07-30T01:52:39;4.22;;;2.80;;
39524;SDS011;25203;50.754;6.978;2023-07-30T01:54:40;4.30;;;2.85;;
39524;SDS011;25203;50.754;6.978;2023-07-30T01:56:40;4.35;;;3.00;;
39524;SDS011;25203;50.754;6.978;2023-07-30T01:58:41;5.82;;;2.75;;
39524;SDS011;25203;50.754;6.978;2023-07-30T02:00:41;5.75;;;3.10;;
39524;SDS011;25203;50.754;6.978;2023-07-30T02:02:42;4.15;;;3.13;;
39524;SDS011;25203;50.754;6.978;2023-07-30T02:04:43;5.43;;;3.20;;
39524;SDS011;25203;50.754;6.978;2023-07-30T02:06:43;3.92;;;2.90;;
39524;SDS011;25203;50.754;6.978;2023-07-30T02:08:44;3.40;;;2.50;;
39524;SDS011;25203;50.754;6.978;2023-07-30T02:10:44;4.75;;;2.45;;
39524;SDS011;25203;50.754;6.978;2023-07-30T02:12:57;9.88;;;2.83;;
39524;SDS011;25203;50.754;6.978;2023-07-30T02:15:00;3.67;;;2.85;;
39524;SDS011;25203;50.754;6.978;2023-07-30T02:17:00;5.40;;;2.97;;
39524;SDS011;25203;50.754;6.978;2023-07-30T02:19:01;4.32;;;2.58;;
39524;SDS011;25203;50.754;6.978;2023-07-30T02:21:01;10.95;;;3.63;;
39524;SDS011;25203;50.754;6.978;2023-07-30T02:23:02;4.80;;;3.08;;
39524;SDS011;25203;50.754;6.978;2023-07-30T02:25:03;4.18;;;2.65;;
39524;SDS011;25203;50.754;6.978;2023-07-30T02:27:04;6.80;;;3.35;;
39524;SDS011;25203;50.754;6.978;2023-07-30T02:29:05;8.80;;;2.97;;
39524;SDS011;25203;50.754;6.978;2023-07-30T02:31:05;3.80;;;2.50;;
39524;SDS011;25203;50.754;6.978;2023-07-30T02:33:06;3.30;;;2.75;;
39524;SDS011;25203;50.754;6.978;2023-07-30T02:35:07;5.53;;;2.55;;
39524;SDS011;25203;50.754;6.978;2023-07-30T02:37:07;3.78;;;2.53;;
39524;SDS011;25203;50.754;6.978;2023-07-30T02:39:08;5.38;;;2.63;;
39524;SDS011;25203;50.754;6.978;2023-07-30T02:41:08;2.83;;;2.53;;
39524;SDS011;25203;50.754;6.978;2023-07-30T02:43:09;3.97;;;2.83;;
39524;SDS011;25203;50.754;6.978;2023-07-30T02:45:10;5.30;;;2.53;;
39524;SDS011;25203;50.754;6.978;2023-07-30T02:47:10;5.20;;;2.45;;
39524;SDS011;25203;50.754;6.978;2023-07-30T02:49:11;6.68;;;2.50;;
39524;SDS011;25203;50.754;6.978;2023-07-30T02:51:12;6.30;;;2.58;;
39524;SDS011;25203;50.754;6.978;2023-07-30T02:53:12;10.38;;;2.85;;
39524;SDS011;25203;50.754;6.978;2023-07-30T02:55:13;3.47;;;2.08;;
39524;SDS011;25203;50.754;6.978;2023-07-30T02:57:13;4.97;;;2.30;;
39524;SDS011;25203;50.754;6.978;2023-07-30T02:59:14;5.80;;;2.65;;
39524;SDS011;25203;50.754;6.978;2023-07-30T03:01:14;6.15;;;2.50;;
39524;SDS011;25203;50.754;6.978;2023-07-30T03:03:16;8.27;;;2.80;;
39524;SDS011;25203;50.754;6.978;2023-07-30T03:05:17;6.32;;;2.50;;
39524;SDS011;25203;50.754;6.978;2023-07-30T03:07:17;3.55;;;2.17;;
39524;SDS011;25203;50.754;6.978;2023-07-30T03:09:19;6.10;;;2.58;;
39524;SDS011;25203;50.754;6.978;2023-07-30T03:11:21;5.28;;;2.33;;
39524;SDS011;25203;50.754;6.978;2023-07-30T03:13:22;8.55;;;2.58;;
39524;SDS011;25203;50.754;6.978;2023-07-30T03:15:23;5.32;;;3.30;;
39524;SDS011;25203;50.754;6.978;2023-07-30T03:17:23;5.72;;;3.72;;
39524;SDS011;25203;50.754;6.978;2023-07-30T03:19:25;4.97;;;2.30;;
39524;SDS011;25203;50.754;6.978;2023-07-30T03:21:25;3.28;;;2.28;;
39524;SDS011;25203;50.754;6.978;2023-07-30T03:23:26;6.68;;;2.70;;
39524;SDS011;25203;50.754;6.978;2023-07-30T03:25:27;6.13;;;2.50;;
39524;SDS011;25203;50.754;6.978;2023-07-30T03:27:28;3.65;;;2.80;;
39524;SDS011;25203;50.754;6.978;2023-07-30T03:29:28;6.95;;;2.65;;
39524;SDS011;25203;50.754;6.978;2023-07-30T03:31:29;4.22;;;2.40;;
39524;SDS011;25203;50.754;6.978;2023-07-30T03:33:30;6.45;;;2.97;;
39524;SDS011;25203;50.754;6.978;2023-07-30T03:35:31;5.55;;;2.67;;
39524;SDS011;25203;50.754;6.978;2023-07-30T03:37:32;5.30;;;2.53;;
39524;SDS011;25203;50.754;6.978;2023-07-30T03:39:32;6.78;;;2.95;;
39524;SDS011;25203;50.754;6.978;2023-07-30T03:41:33;7.15;;;3.00;;
39524;SDS011;25203;50.754;6.978;2023-07-30T03:43:35;7.28;;;3.17;;
39524;SDS011;25203;50.754;6.978;2023-07-30T03:45:36;7.25;;;2.67;;
39524;SDS011;25203;50.754;6.978;2023-07-30T03:47:36;5.63;;;2.72;;
39524;SDS011;25203;50.754;6.978;2023-07-30T03:49:37;5.38;;;3.00;;
39524;SDS011;25203;50.754;6.978;2023-07-30T03:51:38;5.35;;;3.00;;
39524;SDS011;25203;50.754;6.978;2023-07-30T03:53:38;4.38;;;2.88;;
39524;SDS011;25203;50.754;6.978;2023-07-30T03:55:39;6.97;;;2.90;;
39524;SDS011;25203;50.754;6.978;2023-07-30T03:57:40;4.30;;;2.45;;
39524;SDS011;25203;50.754;6.978;2023-07-30T03:59:41;6.25;;;2.80;;
39524;SDS011;25203;50.754;6.978;2023-07-30T04:01:42;9.32;;;2.95;;
39524;SDS011;25203;50.754;6.978;2023-07-30T04:03:42;3.65;;;2.55;;
39524;SDS011;25203;50.754;6.978;2023-07-30T04:05:43;13.02;;;4.97;;
39524;SDS011;25203;50.754;6.978;2023-07-30T04:07:43;5.97;;;2.47;;
39524;SDS011;25203;50.754;6.978;2023-07-30T04:09:44;5.80;;;2.40;;
39524;SDS011;25203;50.754;6.978;2023-07-30T04:11:45;5.60;;;2.90;;
39524;SDS011;25203;50.754;6.978;2023-07-30T04:13:45;9.45;;;3.03;;
39524;SDS011;25203;50.754;6.978;2023-07-30T04:15:49;5.18;;;2.47;;
39524;SDS011;25203;50.754;6.978;2023-07-30T04:17:49;6.80;;;3.10;;
39524;SDS011;25203;50.754;6.978;2023-07-30T04:19:50;4.72;;;2.40;;
39524;SDS011;25203;50.754;6.978;2023-07-30T04:21:51;4.90;;;2.80;;
39524;SDS011;25203;50.754;6.978;2023-07-30T04:23:51;6.72;;;2.92;;
39524;SDS011;25203;50.754;6.978;2023-07-30T04:25:52;8.75;;;2.50;;
39524;SDS011;25203;50.754;6.978;2023-07-30T04:27:52;9.05;;;2.65;;
39524;SDS011;25203;50.754;6.978;2023-07-30T04:29:53;6.18;;;2.42;;
39524;SDS011;25203;50.754;6.978;2023-07-30T04:31:54;5.88;;;1.83;;
39524;SDS011;25203;50.754;6.978;2023-07-30T04:33:54;5.85;;;2.20;;
39524;SDS011;25203;50.754;6.978;2023-07-30T04:35:55;4.55;;;2.20;;
39524;SDS011;25203;50.754;6.978;2023-07-30T04:37:55;10.95;;;2.50;;
39524;SDS011;25203;50.754;6.978;2023-07-30T04:39:56;7.55;;;2.40;;
39524;SDS011;25203;50.754;6.978;2023-07-30T04:41:57;7.38;;;2.38;;
39524;SDS011;25203;50.754;6.978;2023-07-30T04:43:57;7.10;;;2.20;;
39524;SDS011;25203;50.754;6.978;2023-07-30T04:45:58;12.95;;;1.92;;
39524;SDS011;25203;50.754;6.978;2023-07-30T04:47:58;6.18;;;2.33;;
39524;SDS011;25203;50.754;6.978;2023-07-30T04:49:59;4.22;;;2.10;;
39524;SDS011;25203;50.754;6.978;2023-07-30T04:52:00;10.43;;;2.70;;
39524;SDS011;25203;50.754;6.978;2023-07-30T04:54:00;6.88;;;2.15;;
39524;SDS011;25203;50.754;6.978;2023-07-30T04:56:01;7.15;;;2.10;;
39524;SDS011;25203;50.754;6.978;2023-07-30T04:58:01;5.38;;;2.20;;
39524;SDS011;25203;50.754;6.978;2023-07-30T05:00:03;6.57;;;2.65;;
39524;SDS011;25203;50.754;6.978;2023-07-30T05:02:04;7.88;;;2.20;;
39524;SDS011;25203;50.754;6.978;2023-07-30T05:04:05;6.65;;;2.45;;
39524;SDS011;25203;50.754;6.978;2023-07-30T05:06:06;5.90;;;2.70;;
39524;SDS011;25203;50.754;6.978;2023-07-30T05:08:06;9.82;;;2.38;;
39524;SDS011;25203;50.754;6.978;2023-07-30T05:10:07;6.30;;;2.72;;
39524;SDS011;25203;50.754;6.978;2023-07-30T05:12:10;7.95;;;2.47;;
39524;SDS011;25203;50.754;6.978;2023-07-30T05:14:11;5.30;;;2.20;;
39524;SDS011;25203;50.754;6.978;2023-07-30T05:16:11;4.00;;;1.98;;
39524;SDS011;25203;50.754;6.978;2023-07-30T05:18:12;5.18;;;2.30;;
39524;SDS011;25203;50.754;6.978;2023-07-30T05:20:13;5.85;;;2.05;;
39524;SDS011;25203;50.754;6.978;2023-07-30T05:22:14;9.30;;;2.95;;
39524;SDS011;25203;50.754;6.978;2023-07-30T05:24:15;5.75;;;2.33;;
39524;SDS011;25203;50.754;6.978;2023-07-30T05:26:15;5.15;;;2.10;;
39524;SDS011;25203;50.754;6.978;2023-07-30T05:28:16;10.13;;;2.83;;
39524;SDS011;25203;50.754;6.978;2023-07-30T05:30:16;7.38;;;2.50;;
39524;SDS011;25203;50.754;6.978;2023-07-30T05:32:17;8.02;;;2.53;;
39524;SDS011;25203;50.754;6.978;2023-07-30T05:34:17;7.32;;;2.10;;
39524;SDS011;25203;50.754;6.978;2023-07-30T05:36:18;5.80;;;2.30;;
39524;SDS011;25203;50.754;6.978;2023-07-30T05:38:19;7.45;;;2.35;;
39524;SDS011;25203;50.754;6.978;2023-07-30T05:40:20;10.55;;;2.40;;
39524;SDS011;25203;50.754;6.978;2023-07-30T05:42:20;6.93;;;2.53;;
39524;SDS011;25203;50.754;6.978;2023-07-30T05:44:21;6.03;;;2.17;;
39524;SDS011;25203;50.754;6.978;2023-07-30T05:46:22;11.95;;;2.35;;
39524;SDS011;25203;50.754;6.978;2023-07-30T05:48:22;8.63;;;2.40;;
39524;SDS011;25203;50.754;6.978;2023-07-30T05:50:23;7.85;;;2.55;;
39524;SDS011;25203;50.754;6.978;2023-07-30T05:52:24;18.20;;;2.40;;
39524;SDS011;25203;50.754;6.978;2023-07-30T05:54:24;4.45;;;2.17;;
39524;SDS011;25203;50.754;6.978;2023-07-30T05:56:25;4.60;;;2.08;;
39524;SDS011;25203;50.754;6.978;2023-07-30T05:58:25;9.77;;;2.47;;
39524;SDS011;25203;50.754;6.978;2023-07-30T06:00:26;9.43;;;2.45;;
39524;SDS011;25203;50.754;6.978;2023-07-30T06:02:26;8.88;;;2.33;;
39524;SDS011;25203;50.754;6.978;2023-07-30T06:04:27;7.88;;;2.00;;
39524;SDS011;25203;50.754;6.978;2023-07-30T06:06:28;5.20;;;2.15;;
39524;SDS011;25203;50.754;6.978;2023-07-30T06:08:29;11.05;;;2.47;;
39524;SDS011;25203;50.754;6.978;2023-07-30T06:10:30;5.97;;;2.53;;
39524;SDS011;25203;50.754;6.978;2023-07-30T06:12:30;4.85;;;2.17;;
39524;SDS011;25203;50.754;6.978;2023-07-30T06:14:31;7.65;;;2.53;;
39524;SDS011;25203;50.754;6.978;2023-07-30T06:16:32;6.38;;;2.03;;
39524;SDS011;25203;50.754;6.978;2023-07-30T06:18:32;5.13;;;2.10;;
39524;SDS011;25203;50.754;6.978;2023-07-30T06:20:33;6.65;;;2.00;;
39524;SDS011;25203;50.754;6.978;2023-07-30T06:22:33;6.97;;;2.20;;
39524;SDS011;25203;50.754;6.978;2023-07-30T06:24:34;5.90;;;2.10;;
39524;SDS011;25203;50.754;6.978;2023-07-30T06:26:35;8.32;;;2.15;;
39524;SDS011;25203;50.754;6.978;2023-07-30T06:28:35;8.35;;;2.30;;
39524;SDS011;25203;50.754;6.978;2023-07-30T06:30:36;7.35;;;2.20;;
39524;SDS011;25203;50.754;6.978;2023-07-30T06:32:39;7.32;;;2.40;;
39524;SDS011;25203;50.754;6.978;2023-07-30T06:34:39;7.47;;;2.30;;
39524;SDS011;25203;50.754;6.978;2023-07-30T06:36:40;4.53;;;2.03;;
39524;SDS011;25203;50.754;6.978;2023-07-30T06:38:41;9.30;;;2.17;;
39524;SDS011;25203;50.754;6.978;2023-07-30T06:40:41;5.00;;;2.25;;
39524;SDS011;25203;50.754;6.978;2023-07-30T06:42:42;5.47;;;2.55;;
39524;SDS011;25203;50.754;6.978;2023-07-30T06:44:42;7.00;;;2.10;;
39524;SDS011;25203;50.754;6.978;2023-07-30T06:46:43;3.72;;;1.80;;
39524;SDS011;25203;50.754;6.978;2023-07-30T06:48:43;7.30;;;1.98;;
39524;SDS011;25203;50.754;6.978;2023-07-30T06:50:44;5.18;;;1.90;;
39524;SDS011;25203;50.754;6.978;2023-07-30T06:52:45;5.75;;;1.90;;
39524;SDS011;25203;50.754;6.978;2023-07-30T06:54:45;6.25;;;2.15;;
39524;SDS011;25203;50.754;6.978;2023-07-30T06:56:46;5.20;;;2.83;;
39524;SDS011;25203;50.754;6.978;2023-07-30T06:58:46;4.47;;;1.80;;
39524;SDS011;25203;50.754;6.978;2023-07-30T07:00:47;4.35;;;2.30;;
39524;SDS011;25203;50.754;6.978;2023-07-30T07:02:48;5.20;;;2.10;;
39524;SDS011;25203;50.754;6.978;2023-07-30T07:04:48;4.88;;;2.60;;
39524;SDS011;25203;50.754;6.978;2023-07-30T07:06:50;11.63;;;2.63;;
39524;SDS011;25203;50.754;6.978;2023-07-30T07:08:50;7.32;;;1.88;;
39524;SDS011;25203;50.754;6.978;2023-07-30T07:10:51;11.65;;;2.13;;
39524;SDS011;25203;50.754;6.978;2023-07-30T07:12:51;7.45;;;2.28;;
39524;SDS011;25203;50.754;6.978;2023-07-30T07:14:52;9.75;;;2.40;;
39524;SDS011;25203;50.754;6.978;2023-07-30T07:16:53;6.95;;;2.50;;
39524;SDS011;25203;50.754;6.978;2023-07-30T07:18:57;8.88;;;2.45;;
39524;SDS011;25203;50.754;6.978;2023-07-30T07:20:58;8.27;;;2.83;;
39524;SDS011;25203;50.754;6.978;2023-07-30T07:22:59;10.60;;;2.20;;
39524;SDS011;25203;50.754;6.978;2023-07-30T07:24:59;5.03;;;2.10;;
39524;SDS011;25203;50.754;6.978;2023-07-30T07:27:00;4.65;;;2.00;;
39524;SDS011;25203;50.754;6.978;2023-07-30T07:29:00;8.50;;;2.05;;
39524;SDS011;25203;50.754;6.978;2023-07-30T07:31:01;4.60;;;1.85;;
39524;SDS011;25203;50.754;6.978;2023-07-30T07:33:02;4.28;;;2.25;;
39524;SDS011;25203;50.754;6.978;2023-07-30T07:35:03;6.32;;;2.50;;
39524;SDS011;25203;50.754;6.978;2023-07-30T07:37:05;10.48;;;2.55;;
39524;SDS011;25203;50.754;6.978;2023-07-30T07:39:05;3.90;;;1.75;;
39524;SDS011;25203;50.754;6.978;2023-07-30T07:41:06;5.32;;;2.03;;
39524;SDS011;25203;50.754;6.978;2023-07-30T07:43:07;8.35;;;2.20;;
39524;SDS011;25203;50.754;6.978;2023-07-30T07:45:08;4.38;;;1.77;;
39524;SDS011;25203;50.754;6.978;2023-07-30T07:47:09;6.22;;;1.98;;
39524;SDS011;25203;50.754;6.978;2023-07-30T07:49:10;6.82;;;2.20;;
39524;SDS011;25203;50.754;6.978;2023-07-30T07:51:10;6.43;;;1.73;;
39524;SDS011;25203;50.754;6.978;2023-07-30T07:53:11;4.63;;;2.17;;
39524;SDS011;25203;50.754;6.978;2023-07-30T07:55:12;10.70;;;2.65;;
39524;SDS011;25203;50.754;6.978;2023-07-30T07:57:12;8.60;;;2.00;;
39524;SDS011;25203;50.754;6.978;2023-07-30T07:59:13;7.97;;;2.10;;
39524;SDS011;25203;50.754;6.978;2023-07-30T08:01:14;5.95;;;1.92;;
39524;SDS011;25203;50.754;6.978;2023-07-30T08:03:14;5.25;;;1.65;;
39524;SDS011;25203;50.754;6.978;2023-07-30T08:05:15;5.85;;;1.95;;
39524;SDS011;25203;50.754;6.978;2023-07-30T08:07:16;6.53;;;2.05;;
39524;SDS011;25203;50.754;6.978;2023-07-30T08:09:16;5.03;;;1.58;;
39524;SDS011;25203;50.754;6.978;2023-07-30T08:11:17;8.23;;;1.90;;
39524;SDS011;25203;50.754;6.978;2023-07-30T08:13:17;8.02;;;2.15;;
39524;SDS011;25203;50.754;6.978;2023-07-30T08:15:18;8.10;;;2.65;;
39524;SDS011;25203;50.754;6.978;2023-07-30T08:17:19;8.23;;;2.13;;
39524;SDS011;25203;50.754;6.978;2023-07-30T08:19:20;11.65;;;2.00;;
39524;SDS011;25203;50.754;6.978;2023-07-30T08:21:21;5.63;;;1.60;;
39524;SDS011;25203;50.754;6.978;2023-07-30T08:23:22;10.13;;;2.08;;
39524;SDS011;25203;50.754;6.978;2023-07-30T08:25:22;9.65;;;2.22;;
39524;SDS011;25203;50.754;6.978;2023-07-30T08:27:23;11.88;;;2.33;;
39524;SDS011;25203;50.754;6.978;2023-07-30T08:29:23;8.05;;;1.73;;
39524;SDS011;25203;50.754;6.978;2023-07-30T08:31:24;8.30;;;1.88;;
39524;SDS011;25203;50.754;6.978;2023-07-30T08:33:25;6.65;;;1.80;;
39524;SDS011;25203;50.754;6.978;2023-07-30T08:35:26;7.93;;;2.55;;
39524;SDS011;25203;50.754;6.978;2023-07-30T08:37:27;5.68;;;2.03;;
39524;SDS011;25203;50.754;6.978;2023-07-30T08:39:27;10.18;;;2.15;;
39524;SDS011;25203;50.754;6.978;2023-07-30T08:41:28;8.90;;;2.10;;
39524;SDS011;25203;50.754;6.978;2023-07-30T08:43:29;12.57;;;3.38;;
39524;SDS011;25203;50.754;6.978;2023-07-30T08:45:30;10.10;;;2.17;;
39524;SDS011;25203;50.754;6.978;2023-07-30T08:47:31;11.60;;;2.38;;
39524;SDS011;25203;50.754;6.978;2023-07-30T08:49:32;9.02;;;2.55;;
39524;SDS011;25203;50.754;6.978;2023-07-30T08:51:33;7.88;;;2.35;;
39524;SDS011;25203;50.754;6.978;2023-07-30T08:53:37;9.00;;;2.60;;
39524;SDS011;25203;50.754;6.978;2023-07-30T08:55:38;11.25;;;2.42;;
39524;SDS011;25203;50.754;6.978;2023-07-30T08:57:40;8.40;;;2.28;;
39524;SDS011;25203;50.754;6.978;2023-07-30T08:59:45;10.48;;;2.38;;
39524;SDS011;25203;50.754;6.978;2023-07-30T09:01:54;7.47;;;2.10;;
39524;SDS011;25203;50.754;6.978;2023-07-30T09:03:57;7.43;;;2.05;;
39524;SDS011;25203;50.754;6.978;2023-07-30T09:06:00;6.82;;;2.00;;
39524;SDS011;25203;50.754;6.978;2023-07-30T09:08:01;6.55;;;1.70;;
39524;SDS011;25203;50.754;6.978;2023-07-30T09:10:01;7.30;;;1.73;;
39524;SDS011;25203;50.754;6.978;2023-07-30T09:12:02;9.93;;;2.70;;
39524;SDS011;25203;50.754;6.978;2023-07-30T09:14:05;9.48;;;2.60;;
39524;SDS011;25203;50.754;6.978;2023-07-30T09:16:10;11.50;;;2.20;;
39524;SDS011;25203;50.754;6.978;2023-07-30T09:18:12;8.23;;;2.20;;
39524;SDS011;25203;50.754;6.978;2023-07-30T09:20:16;7.07;;;1.98;;
39524;SDS011;25203;50.754;6.978;2023-07-30T09:22:27;15.43;;;2.78;;
39524;SDS011;25203;50.754;6.978;2023-07-30T09:24:29;8.20;;;2.20;;
39524;SDS011;25203;50.754;6.978;2023-07-30T09:26:29;6.85;;;2.03;;
39524;SDS011;25203;50.754;6.978;2023-07-30T09:28:30;8.05;;;2.15;;
39524;SDS011;25203;50.754;6.978;2023-07-30T09:30:31;5.88;;;2.53;;
39524;SDS011;25203;50.754;6.978;2023-07-30T09:32:33;7.28;;;1.88;;
39524;SDS011;25203;50.754;6.978;2023-07-30T09:34:35;10.88;;;2.15;;
39524;SDS011;25203;50.754;6.978;2023-07-30T09:36:35;8.27;;;2.42;;
39524;SDS011;25203;50.754;6.978;2023-07-30T09:38:39;9.55;;;2.42;;
39524;SDS011;25203;50.754;6.978;2023-07-30T09:40:41;9.88;;;2.08;;
39524;SDS011;25203;50.754;6.978;2023-07-30T09:42:44;8.38;;;1.95;;
39524;SDS011;25203;50.754;6.978;2023-07-30T09:44:46;7.97;;;1.92;;
39524;SDS011;25203;50.754;6.978;2023-07-30T09:46:48;9.18;;;2.10;;
39524;SDS011;25203;50.754;6.978;2023-07-30T09:48:49;8.65;;;1.83;;
39524;SDS011;25203;50.754;6.978;2023-07-30T09:50:50;7.60;;;1.75;;
39524;SDS011;25203;50.754;6.978;2023-07-30T09:52:51;5.32;;;1.88;;
39524;SDS011;25203;50.754;6.978;2023-07-30T09:54:54;8.55;;;1.90;;
39524;SDS011;25203;50.754;6.978;2023-07-30T09:56:56;8.65;;;1.63;;
39524;SDS011;25203;50.754;6.978;2023-07-30T09:58:56;4.97;;;1.63;;
39524;SDS011;25203;50.754;6.978;2023-07-30T10:01:00;10.63;;;1.35;;
39524;SDS011;25203;50.754;6.978;2023-07-30T10:03:02;6.43;;;1.88;;
39524;SDS011;25203;50.754;6.978;2023-07-30T10:05:08;5.97;;;2.15;;
39524;SDS011;25203;50.754;6.978;2023-07-30T10:07:17;9.20;;;2.00;;
39524;SDS011;25203;50.754;6.978;2023-07-30T10:09:22;6.07;;;1.58;;
39524;SDS011;25203;50.754;6.978;2023-07-30T10:11:24;8.40;;;1.60;;
39524;SDS011;25203;50.754;6.978;2023-07-30T10:13:27;5.68;;;1.48;;
39524;SDS011;25203;50.754;6.978;2023-07-30T10:15:28;5.70;;;1.90;;
39524;SDS011;25203;50.754;6.978;2023-07-30T10:17:29;7.60;;;1.92;;
39524;SDS011;25203;50.754;6.978;2023-07-30T10:19:32;6.13;;;1.77;;
39524;SDS011;25203;50.754;6.978;2023-07-30T10:21:33;12.77;;;2.40;;
39524;SDS011;25203;50.754;6.978;2023-07-30T10:23:34;6.68;;;2.03;;
39524;SDS011;25203;50.754;6.978;2023-07-30T10:25:45;6.03;;;1.85;;
39524;SDS011;25203;50.754;6.978;2023-07-30T10:27:50;9.18;;;2.20;;
39524;SDS011;25203;50.754;6.978;2023-07-30T10:30:07;5.78;;;1.63;;
39524;SDS011;25203;50.754;6.978;2023-07-30T10:32:13;7.40;;;1.98;;
39524;SDS011;25203;50.754;6.978;2023-07-30T10:34:16;6.75;;;1.65;;
39524;SDS011;25203;50.754;6.978;2023-07-30T10:36:18;7.75;;;1.70;;
39524;SDS011;25203;50.754;6.978;2023-07-30T10:38:34;5.18;;;1.60;;
39524;SDS011;25203;50.754;6.978;2023-07-30T10:40:38;5.35;;;1.60;;
39524;SDS011;25203;50.754;6.978;2023-07-30T10:42:39;3.67;;;1.50;;
39524;SDS011;25203;50.754;6.978;2023-07-30T10:44:40;6.55;;;1.50;;
39524;SDS011;25203;50.754;6.978;2023-07-30T10:46:44;5.68;;;1.58;;
39524;SDS011;25203;50.754;6.978;2023-07-30T10:48:45;3.70;;;1.25;;
39524;SDS011;25203;50.754;6.978;2023-07-30T10:50:47;4.78;;;1.30;;
39524;SDS011;25203;50.754;6.978;2023-07-30T10:52:48;6.88;;;1.90;;
39524;SDS011;25203;50.754;6.978;2023-07-30T10:54:49;6.50;;;1.60;;
39524;SDS011;25203;50.754;6.978;2023-07-30T10:56:59;5.90;;;1.60;;
39524;SDS011;25203;50.754;6.978;2023-07-30T10:59:00;5.85;;;2.17;;
39524;SDS011;25203;50.754;6.978;2023-07-30T11:01:03;5.43;;;1.80;;
39524;SDS011;25203;50.754;6.978;2023-07-30T11:03:05;4.97;;;1.48;;
39524;SDS011;25203;50.754;6.978;2023-07-30T11:05:12;8.55;;;1.65;;
39524;SDS011;25203;50.754;6.978;2023-07-30T11:07:16;6.78;;;1.77;;
39524;SDS011;25203;50.754;6.978;2023-07-30T11:09:25;5.55;;;2.05;;
39524;SDS011;25203;50.754;6.978;2023-07-30T11:11:27;3.63;;;1.50;;
39524;SDS011;25203;50.754;6.978;2023-07-30T11:13:28;5.47;;;1.50;;
39524;SDS011;25203;50.754;6.978;2023-07-30T11:15:29;5.95;;;1.60;;
39524;SDS011;25203;50.754;6.978;2023-07-30T11:17:30;6.00;;;1.95;;
39524;SDS011;25203;50.754;6.978;2023-07-30T11:19:30;5.60;;;1.50;;
39524;SDS011;25203;50.754;6.978;2023-07-30T11:21:34;3.00;;;1.10;;
39524;SDS011;25203;50.754;6.978;2023-07-30T11:23:35;5.25;;;1.38;;
39524;SDS011;25203;50.754;6.978;2023-07-30T11:25:36;3.22;;;1.42;;
39524;SDS011;25203;50.754;6.978;2023-07-30T11:30:04;4.85;;;1.40;;
39524;SDS011;25203;50.754;6.978;2023-07-30T11:32:05;5.35;;;1.65;;
39524;SDS011;25203;50.754;6.978;2023-07-30T11:34:06;7.22;;;1.35;;
39524;SDS011;25203;50.754;6.978;2023-07-30T11:36:14;5.47;;;1.48;;
39524;SDS011;25203;50.754;6.978;2023-07-30T11:38:22;3.25;;;1.30;;
39524;SDS011;25203;50.754;6.978;2023-07-30T11:40:26;3.47;;;1.10;;
39524;SDS011;25203;50.754;6.978;2023-07-30T11:42:27;4.70;;;1.40;;
39524;SDS011;25203;50.754;6.978;2023-07-30T11:44:36;3.63;;;1.35;;
39524;SDS011;25203;50.754;6.978;2023-07-30T11:46:38;3.85;;;1.48;;
39524;SDS011;25203;50.754;6.978;2023-07-30T11:48:53;9.30;;;1.60;;
39524;SDS011;25203;50.754;6.978;2023-07-30T11:51:27;3.80;;;1.13;;
39524;SDS011;25203;50.754;6.978;2023-07-30T11:55:49;7.88;;;1.77;;
39524;SDS011;25203;50.754;6.978;2023-07-30T11:57:51;6.18;;;1.85;;
39524;SDS011;25203;50.754;6.978;2023-07-30T11:59:52;4.47;;;1.60;;
39524;SDS011;25203;50.754;6.978;2023-07-30T12:01:52;5.05;;;1.48;;
39524;SDS011;25203;50.754;6.978;2023-07-30T12:03:54;4.95;;;1.50;;
39524;SDS011;25203;50.754;6.978;2023-07-30T12:05:58;6.40;;;1.38;;
39524;SDS011;25203;50.754;6.978;2023-07-30T12:08:05;5.78;;;1.30;;
39524;SDS011;25203;50.754;6.978;2023-07-30T12:10:12;4.78;;;1.23;;
39524;SDS011;25203;50.754;6.978;2023-07-30T12:12:13;3.55;;;1.15;;
39524;SDS011;25203;50.754;6.978;2023-07-30T12:14:14;3.90;;;1.42;;
39524;SDS011;25203;50.754;6.978;2023-07-30T12:16:15;6.70;;;1.40;;